sensor_id;sensor_type;location;lat;lon;timestamp;P1;durP1;ratioP1;P2;durP2;ratioP2
80985;SDS011;70451;51.226;6.412;2023-09-30T00:01:52;7.30;;;2.50;;
80985;SDS011;70451;51.226;6.412;2023-09-30T00:04:07;4.28;;;1.95;;
80985;SDS011;70451;51.226;6.412;2023-09-30T00:06:24;4.78;;;1.90;;
80985;SDS011;70451;51.226;6.412;2023-09-30T00:08:39;3.60;;;2.00;;
80985;SDS011;70451;51.226;6.412;2023-09-30T00:10:56;8.25;;;2.00;;
80985;SDS011;70451;51.226;6.412;2023-09-30T00:13:12;6.10;;;1.90;;
80985;SDS011;70451;51.226;6.412;2023-09-30T00:15:28;3.83;;;2.10;;
80985;SDS011;70451;51.226;6.412;2023-09-30T00:17:43;4.90;;;2.45;;
80985;SDS011;70451;51.226;6.412;2023-09-30T00:19:58;4.57;;;1.70;;
80985;SDS011;70451;51.226;6.412;2023-09-30T00:22:14;8.25;;;2.10;;
80985;SDS011;70451;51.226;6.412;2023-09-30T00:24:29;5.13;;;2.00;;
80985;SDS011;70451;51.226;6.412;2023-09-30T00:26:45;4.75;;;1.98;;
80985;SDS011;70451;51.226;6.412;2023-09-30T00:29:01;7.57;;;2.97;;
80985;SDS011;70451;51.226;6.412;2023-09-30T00:31:19;6.68;;;2.47;;
80985;SDS011;70451;51.226;6.412;2023-09-30T00:33:35;3.15;;;1.90;;
80985;SDS011;70451;51.226;6.412;2023-09-30T00:35:50;4.25;;;2.05;;
80985;SDS011;70451;51.226;6.412;2023-09-30T00:38:05;3.40;;;1.90;;
80985;SDS011;70451;51.226;6.412;2023-09-30T00:40:21;3.72;;;2.38;;
80985;SDS011;70451;51.226;6.412;2023-09-30T00:42:36;5.28;;;2.40;;
80985;SDS011;70451;51.226;6.412;2023-09-30T00:44:51;5.00;;;2.53;;
80985;SDS011;70451;51.226;6.412;2023-09-30T00:47:07;5.82;;;2.63;;
80985;SDS011;70451;51.226;6.412;2023-09-30T00:49:24;6.50;;;2.33;;
80985;SDS011;70451;51.226;6.412;2023-09-30T00:51:40;4.75;;;2.03;;
80985;SDS011;70451;51.226;6.412;2023-09-30T00:53:57;5.30;;;2.55;;
80985;SDS011;70451;51.226;6.412;2023-09-30T00:58:30;3.38;;;2.05;;
80985;SDS011;70451;51.226;6.412;2023-09-30T01:00:46;9.18;;;2.67;;
80985;SDS011;70451;51.226;6.412;2023-09-30T01:03:02;4.10;;;2.67;;
80985;SDS011;70451;51.226;6.412;2023-09-30T01:05:19;6.07;;;2.60;;
80985;SDS011;70451;51.226;6.412;2023-09-30T01:07:34;7.07;;;2.55;;
80985;SDS011;70451;51.226;6.412;2023-09-30T01:09:50;6.20;;;2.83;;
80985;SDS011;70451;51.226;6.412;2023-09-30T01:12:05;5.60;;;2.45;;
80985;SDS011;70451;51.226;6.412;2023-09-30T01:14:23;6.55;;;3.20;;
80985;SDS011;70451;51.226;6.412;2023-09-30T01:16:39;6.90;;;3.15;;
80985;SDS011;70451;51.226;6.412;2023-09-30T01:18:54;5.50;;;3.05;;
80985;SDS011;70451;51.226;6.412;2023-09-30T01:21:10;5.50;;;2.70;;
80985;SDS011;70451;51.226;6.412;2023-09-30T01:23:26;5.95;;;2.47;;
80985;SDS011;70451;51.226;6.412;2023-09-30T01:25:41;4.55;;;2.97;;
80985;SDS011;70451;51.226;6.412;2023-09-30T01:27:58;7.82;;;3.20;;
80985;SDS011;70451;51.226;6.412;2023-09-30T01:30:15;6.13;;;3.13;;
80985;SDS011;70451;51.226;6.412;2023-09-30T01:32:30;5.78;;;3.15;;
80985;SDS011;70451;51.226;6.412;2023-09-30T01:34:46;6.90;;;3.30;;
80985;SDS011;70451;51.226;6.412;2023-09-30T01:37:01;7.82;;;2.70;;
80985;SDS011;70451;51.226;6.412;2023-09-30T01:39:16;4.05;;;2.47;;
80985;SDS011;70451;51.226;6.412;2023-09-30T01:41:32;5.22;;;2.90;;
80985;SDS011;70451;51.226;6.412;2023-09-30T01:43:47;6.40;;;3.35;;
80985;SDS011;70451;51.226;6.412;2023-09-30T01:46:03;9.00;;;3.08;;
80985;SDS011;70451;51.226;6.412;2023-09-30T01:48:20;7.40;;;2.70;;
80985;SDS011;70451;51.226;6.412;2023-09-30T01:50:35;6.75;;;2.92;;
80985;SDS011;70451;51.226;6.412;2023-09-30T01:52:51;5.03;;;2.85;;
80985;SDS011;70451;51.226;6.412;2023-09-30T01:55:06;7.47;;;3.20;;
80985;SDS011;70451;51.226;6.412;2023-09-30T01:57:22;7.80;;;3.15;;
80985;SDS011;70451;51.226;6.412;2023-09-30T01:59:37;7.43;;;3.20;;
80985;SDS011;70451;51.226;6.412;2023-09-30T02:01:52;6.72;;;3.03;;
80985;SDS011;70451;51.226;6.412;2023-09-30T02:04:07;6.53;;;2.72;;
80985;SDS011;70451;51.226;6.412;2023-09-30T02:06:23;5.13;;;2.88;;
80985;SDS011;70451;51.226;6.412;2023-09-30T02:08:38;7.07;;;3.45;;
80985;SDS011;70451;51.226;6.412;2023-09-30T02:10:53;5.22;;;2.92;;
80985;SDS011;70451;51.226;6.412;2023-09-30T02:13:09;9.75;;;4.03;;
80985;SDS011;70451;51.226;6.412;2023-09-30T02:15:24;6.80;;;3.53;;
80985;SDS011;70451;51.226;6.412;2023-09-30T02:17:40;6.82;;;2.90;;
80985;SDS011;70451;51.226;6.412;2023-09-30T02:20:00;7.15;;;3.75;;
80985;SDS011;70451;51.226;6.412;2023-09-30T02:22:17;5.60;;;3.15;;
80985;SDS011;70451;51.226;6.412;2023-09-30T02:24:33;10.77;;;3.70;;
80985;SDS011;70451;51.226;6.412;2023-09-30T02:26:48;8.30;;;3.40;;
80985;SDS011;70451;51.226;6.412;2023-09-30T02:29:04;4.85;;;3.13;;
80985;SDS011;70451;51.226;6.412;2023-09-30T02:31:22;5.93;;;3.67;;
80985;SDS011;70451;51.226;6.412;2023-09-30T02:33:38;6.82;;;3.40;;
80985;SDS011;70451;51.226;6.412;2023-09-30T02:35:54;6.68;;;3.03;;
80985;SDS011;70451;51.226;6.412;2023-09-30T02:38:09;7.57;;;3.63;;
80985;SDS011;70451;51.226;6.412;2023-09-30T02:40:26;6.60;;;3.22;;
80985;SDS011;70451;51.226;6.412;2023-09-30T02:42:41;7.47;;;3.63;;
80985;SDS011;70451;51.226;6.412;2023-09-30T02:44:59;6.75;;;4.30;;
80985;SDS011;70451;51.226;6.412;2023-09-30T02:47:15;6.68;;;3.20;;
80985;SDS011;70451;51.226;6.412;2023-09-30T02:49:32;7.25;;;3.80;;
80985;SDS011;70451;51.226;6.412;2023-09-30T02:51:47;8.98;;;4.25;;
80985;SDS011;70451;51.226;6.412;2023-09-30T02:54:03;7.50;;;4.32;;
80985;SDS011;70451;51.226;6.412;2023-09-30T02:56:19;6.72;;;4.20;;
80985;SDS011;70451;51.226;6.412;2023-09-30T02:58:34;7.47;;;4.47;;
80985;SDS011;70451;51.226;6.412;2023-09-30T03:00:50;8.73;;;4.45;;
80985;SDS011;70451;51.226;6.412;2023-09-30T03:03:06;6.97;;;4.47;;
80985;SDS011;70451;51.226;6.412;2023-09-30T03:05:21;6.70;;;3.90;;
80985;SDS011;70451;51.226;6.412;2023-09-30T03:07:38;9.63;;;4.32;;
80985;SDS011;70451;51.226;6.412;2023-09-30T03:09:53;7.97;;;4.43;;
80985;SDS011;70451;51.226;6.412;2023-09-30T03:12:10;7.10;;;4.32;;
80985;SDS011;70451;51.226;6.412;2023-09-30T03:14:27;11.02;;;4.97;;
80985;SDS011;70451;51.226;6.412;2023-09-30T03:16:45;8.15;;;4.45;;
80985;SDS011;70451;51.226;6.412;2023-09-30T03:19:01;8.43;;;5.00;;
80985;SDS011;70451;51.226;6.412;2023-09-30T03:21:23;8.02;;;4.10;;
80985;SDS011;70451;51.226;6.412;2023-09-30T03:23:38;7.50;;;4.25;;
80985;SDS011;70451;51.226;6.412;2023-09-30T03:25:57;8.18;;;4.38;;
80985;SDS011;70451;51.226;6.412;2023-09-30T03:28:13;9.02;;;4.60;;
80985;SDS011;70451;51.226;6.412;2023-09-30T03:30:29;9.13;;;4.47;;
80985;SDS011;70451;51.226;6.412;2023-09-30T03:32:46;7.72;;;4.35;;
80985;SDS011;70451;51.226;6.412;2023-09-30T03:35:01;7.68;;;4.28;;
80985;SDS011;70451;51.226;6.412;2023-09-30T03:37:17;7.47;;;4.45;;
80985;SDS011;70451;51.226;6.412;2023-09-30T03:39:32;10.15;;;4.85;;
80985;SDS011;70451;51.226;6.412;2023-09-30T03:41:47;9.40;;;5.60;;
80985;SDS011;70451;51.226;6.412;2023-09-30T03:44:03;9.50;;;4.47;;
80985;SDS011;70451;51.226;6.412;2023-09-30T03:46:18;9.95;;;4.82;;
80985;SDS011;70451;51.226;6.412;2023-09-30T03:48:34;9.52;;;4.75;;
80985;SDS011;70451;51.226;6.412;2023-09-30T03:50:54;8.20;;;4.60;;
80985;SDS011;70451;51.226;6.412;2023-09-30T03:53:09;10.32;;;4.72;;
80985;SDS011;70451;51.226;6.412;2023-09-30T03:55:24;9.73;;;4.57;;
80985;SDS011;70451;51.226;6.412;2023-09-30T03:57:40;8.45;;;4.30;;
80985;SDS011;70451;51.226;6.412;2023-09-30T03:59:55;8.32;;;4.20;;
80985;SDS011;70451;51.226;6.412;2023-09-30T04:02:10;10.63;;;4.55;;
80985;SDS011;70451;51.226;6.412;2023-09-30T04:04:26;9.73;;;4.60;;
80985;SDS011;70451;51.226;6.412;2023-09-30T04:06:41;9.93;;;5.30;;
80985;SDS011;70451;51.226;6.412;2023-09-30T04:08:57;9.32;;;4.25;;
80985;SDS011;70451;51.226;6.412;2023-09-30T04:11:14;7.50;;;4.05;;
80985;SDS011;70451;51.226;6.412;2023-09-30T04:13:33;9.70;;;5.10;;
80985;SDS011;70451;51.226;6.412;2023-09-30T04:15:48;8.63;;;5.13;;
80985;SDS011;70451;51.226;6.412;2023-09-30T04:18:04;12.15;;;4.78;;
80985;SDS011;70451;51.226;6.412;2023-09-30T04:20:20;9.75;;;4.40;;
80985;SDS011;70451;51.226;6.412;2023-09-30T04:22:38;11.15;;;4.95;;
80985;SDS011;70451;51.226;6.412;2023-09-30T04:24:53;8.68;;;4.55;;
80985;SDS011;70451;51.226;6.412;2023-09-30T04:27:08;10.57;;;4.95;;
80985;SDS011;70451;51.226;6.412;2023-09-30T04:29:24;7.93;;;4.80;;
80985;SDS011;70451;51.226;6.412;2023-09-30T04:31:39;10.43;;;4.65;;
80985;SDS011;70451;51.226;6.412;2023-09-30T04:33:56;9.95;;;5.32;;
80985;SDS011;70451;51.226;6.412;2023-09-30T04:36:14;12.52;;;5.40;;
80985;SDS011;70451;51.226;6.412;2023-09-30T04:38:30;9.73;;;4.60;;
80985;SDS011;70451;51.226;6.412;2023-09-30T04:40:46;9.68;;;4.95;;
80985;SDS011;70451;51.226;6.412;2023-09-30T04:43:03;10.02;;;5.28;;
80985;SDS011;70451;51.226;6.412;2023-09-30T04:45:20;11.70;;;5.70;;
80985;SDS011;70451;51.226;6.412;2023-09-30T04:47:35;9.30;;;5.00;;
80985;SDS011;70451;51.226;6.412;2023-09-30T04:49:52;9.40;;;5.38;;
80985;SDS011;70451;51.226;6.412;2023-09-30T04:52:07;10.32;;;5.72;;
80985;SDS011;70451;51.226;6.412;2023-09-30T04:54:23;10.45;;;5.50;;
80985;SDS011;70451;51.226;6.412;2023-09-30T04:56:38;10.05;;;5.47;;
80985;SDS011;70451;51.226;6.412;2023-09-30T04:58:54;13.48;;;5.60;;
80985;SDS011;70451;51.226;6.412;2023-09-30T05:01:09;13.48;;;5.95;;
80985;SDS011;70451;51.226;6.412;2023-09-30T05:03:24;11.63;;;5.22;;
80985;SDS011;70451;51.226;6.412;2023-09-30T05:05:41;12.35;;;5.53;;
80985;SDS011;70451;51.226;6.412;2023-09-30T05:07:56;10.13;;;6.18;;
80985;SDS011;70451;51.226;6.412;2023-09-30T05:10:13;11.98;;;5.70;;
80985;SDS011;70451;51.226;6.412;2023-09-30T05:12:31;12.02;;;6.00;;
80985;SDS011;70451;51.226;6.412;2023-09-30T05:14:48;13.55;;;7.15;;
80985;SDS011;70451;51.226;6.412;2023-09-30T05:17:03;12.23;;;6.32;;
80985;SDS011;70451;51.226;6.412;2023-09-30T05:19:19;10.32;;;5.13;;
80985;SDS011;70451;51.226;6.412;2023-09-30T05:21:35;10.45;;;5.07;;
80985;SDS011;70451;51.226;6.412;2023-09-30T05:23:51;11.40;;;5.20;;
80985;SDS011;70451;51.226;6.412;2023-09-30T05:26:07;14.43;;;6.07;;
80985;SDS011;70451;51.226;6.412;2023-09-30T05:28:23;13.55;;;6.28;;
80985;SDS011;70451;51.226;6.412;2023-09-30T05:30:38;10.68;;;5.75;;
80985;SDS011;70451;51.226;6.412;2023-09-30T05:32:54;10.13;;;5.68;;
80985;SDS011;70451;51.226;6.412;2023-09-30T05:35:10;11.50;;;6.20;;
80985;SDS011;70451;51.226;6.412;2023-09-30T05:37:28;11.98;;;5.57;;
80985;SDS011;70451;51.226;6.412;2023-09-30T05:39:43;12.00;;;6.25;;
80985;SDS011;70451;51.226;6.412;2023-09-30T05:41:59;9.88;;;5.28;;
80985;SDS011;70451;51.226;6.412;2023-09-30T05:44:14;9.95;;;5.55;;
80985;SDS011;70451;51.226;6.412;2023-09-30T05:46:30;11.73;;;5.35;;
80985;SDS011;70451;51.226;6.412;2023-09-30T05:48:46;11.27;;;5.38;;
80985;SDS011;70451;51.226;6.412;2023-09-30T05:51:01;12.75;;;6.18;;
80985;SDS011;70451;51.226;6.412;2023-09-30T05:53:16;11.27;;;5.25;;
80985;SDS011;70451;51.226;6.412;2023-09-30T05:55:32;13.65;;;6.43;;
80985;SDS011;70451;51.226;6.412;2023-09-30T05:57:50;9.52;;;5.43;;
80985;SDS011;70451;51.226;6.412;2023-09-30T06:00:07;10.02;;;5.43;;
80985;SDS011;70451;51.226;6.412;2023-09-30T06:02:29;10.60;;;5.93;;
80985;SDS011;70451;51.226;6.412;2023-09-30T06:04:44;9.63;;;5.10;;
80985;SDS011;70451;51.226;6.412;2023-09-30T06:07:01;12.05;;;5.82;;
80985;SDS011;70451;51.226;6.412;2023-09-30T06:09:16;9.68;;;5.65;;
80985;SDS011;70451;51.226;6.412;2023-09-30T06:11:31;11.82;;;6.25;;
80985;SDS011;70451;51.226;6.412;2023-09-30T06:13:47;11.20;;;6.45;;
80985;SDS011;70451;51.226;6.412;2023-09-30T06:16:02;10.02;;;5.20;;
80985;SDS011;70451;51.226;6.412;2023-09-30T06:18:17;9.55;;;5.28;;
80985;SDS011;70451;51.226;6.412;2023-09-30T06:20:33;10.70;;;5.68;;
80985;SDS011;70451;51.226;6.412;2023-09-30T06:22:49;11.20;;;6.38;;
80985;SDS011;70451;51.226;6.412;2023-09-30T06:25:04;9.57;;;5.47;;
80985;SDS011;70451;51.226;6.412;2023-09-30T06:27:20;11.57;;;6.18;;
80985;SDS011;70451;51.226;6.412;2023-09-30T06:29:35;11.68;;;5.93;;
80985;SDS011;70451;51.226;6.412;2023-09-30T06:31:50;12.50;;;6.50;;
80985;SDS011;70451;51.226;6.412;2023-09-30T06:34:06;8.88;;;5.45;;
80985;SDS011;70451;51.226;6.412;2023-09-30T06:36:21;12.52;;;6.13;;
80985;SDS011;70451;51.226;6.412;2023-09-30T06:38:37;9.00;;;5.93;;
80985;SDS011;70451;51.226;6.412;2023-09-30T06:40:52;10.68;;;5.80;;
80985;SDS011;70451;51.226;6.412;2023-09-30T06:43:09;12.10;;;6.05;;
80985;SDS011;70451;51.226;6.412;2023-09-30T06:45:24;9.07;;;6.18;;
80985;SDS011;70451;51.226;6.412;2023-09-30T06:47:40;11.68;;;5.32;;
80985;SDS011;70451;51.226;6.412;2023-09-30T06:49:56;11.93;;;6.85;;
80985;SDS011;70451;51.226;6.412;2023-09-30T06:52:11;12.70;;;6.47;;
80985;SDS011;70451;51.226;6.412;2023-09-30T06:54:27;12.65;;;6.07;;
80985;SDS011;70451;51.226;6.412;2023-09-30T06:56:42;10.23;;;6.73;;
80985;SDS011;70451;51.226;6.412;2023-09-30T06:58:57;14.32;;;7.03;;
80985;SDS011;70451;51.226;6.412;2023-09-30T07:01:15;12.68;;;6.75;;
80985;SDS011;70451;51.226;6.412;2023-09-30T07:03:32;13.52;;;7.75;;
80985;SDS011;70451;51.226;6.412;2023-09-30T07:05:48;12.93;;;7.55;;
80985;SDS011;70451;51.226;6.412;2023-09-30T07:08:06;15.48;;;6.90;;
80985;SDS011;70451;51.226;6.412;2023-09-30T07:10:22;13.02;;;7.03;;
80985;SDS011;70451;51.226;6.412;2023-09-30T07:12:38;13.98;;;7.30;;
80985;SDS011;70451;51.226;6.412;2023-09-30T07:14:54;14.57;;;7.80;;
80985;SDS011;70451;51.226;6.412;2023-09-30T07:17:09;16.58;;;8.43;;
80985;SDS011;70451;51.226;6.412;2023-09-30T07:19:24;15.88;;;8.43;;
80985;SDS011;70451;51.226;6.412;2023-09-30T07:21:40;17.30;;;8.10;;
80985;SDS011;70451;51.226;6.412;2023-09-30T07:23:55;14.77;;;7.55;;
80985;SDS011;70451;51.226;6.412;2023-09-30T07:26:10;17.00;;;7.45;;
80985;SDS011;70451;51.226;6.412;2023-09-30T07:28:26;17.45;;;8.57;;
80985;SDS011;70451;51.226;6.412;2023-09-30T07:30:41;13.18;;;7.63;;
80985;SDS011;70451;51.226;6.412;2023-09-30T07:32:56;15.88;;;8.90;;
80985;SDS011;70451;51.226;6.412;2023-09-30T07:35:12;16.23;;;8.13;;
80985;SDS011;70451;51.226;6.412;2023-09-30T07:37:30;16.58;;;8.13;;
80985;SDS011;70451;51.226;6.412;2023-09-30T07:39:45;19.13;;;8.20;;
80985;SDS011;70451;51.226;6.412;2023-09-30T07:42:00;15.38;;;8.48;;
80985;SDS011;70451;51.226;6.412;2023-09-30T07:44:16;19.73;;;8.95;;
80985;SDS011;70451;51.226;6.412;2023-09-30T07:46:31;17.15;;;8.10;;
80985;SDS011;70451;51.226;6.412;2023-09-30T07:48:47;17.95;;;8.52;;
80985;SDS011;70451;51.226;6.412;2023-09-30T07:51:02;18.70;;;8.15;;
80985;SDS011;70451;51.226;6.412;2023-09-30T07:53:17;18.25;;;8.27;;
80985;SDS011;70451;51.226;6.412;2023-09-30T07:55:32;15.07;;;8.70;;
80985;SDS011;70451;51.226;6.412;2023-09-30T07:57:48;19.63;;;9.75;;
80985;SDS011;70451;51.226;6.412;2023-09-30T08:00:03;16.15;;;7.90;;
80985;SDS011;70451;51.226;6.412;2023-09-30T08:02:24;16.90;;;7.68;;
80985;SDS011;70451;51.226;6.412;2023-09-30T08:04:43;15.57;;;7.45;;
80985;SDS011;70451;51.226;6.412;2023-09-30T08:06:58;16.63;;;8.43;;
80985;SDS011;70451;51.226;6.412;2023-09-30T08:09:13;19.63;;;8.40;;
80985;SDS011;70451;51.226;6.412;2023-09-30T08:11:29;15.25;;;8.02;;
80985;SDS011;70451;51.226;6.412;2023-09-30T08:13:47;16.58;;;7.68;;
80985;SDS011;70451;51.226;6.412;2023-09-30T08:16:02;12.70;;;7.75;;
80985;SDS011;70451;51.226;6.412;2023-09-30T08:18:18;16.13;;;7.10;;
80985;SDS011;70451;51.226;6.412;2023-09-30T08:20:33;16.77;;;7.85;;
80985;SDS011;70451;51.226;6.412;2023-09-30T08:22:49;14.55;;;7.70;;
80985;SDS011;70451;51.226;6.412;2023-09-30T08:25:05;15.85;;;8.10;;
80985;SDS011;70451;51.226;6.412;2023-09-30T08:27:21;16.40;;;7.60;;
80985;SDS011;70451;51.226;6.412;2023-09-30T08:29:36;14.60;;;6.40;;
80985;SDS011;70451;51.226;6.412;2023-09-30T08:31:51;13.95;;;7.18;;
80985;SDS011;70451;51.226;6.412;2023-09-30T08:34:07;14.20;;;6.90;;
80985;SDS011;70451;51.226;6.412;2023-09-30T08:36:23;15.88;;;7.30;;
80985;SDS011;70451;51.226;6.412;2023-09-30T08:38:40;17.02;;;7.80;;
80985;SDS011;70451;51.226;6.412;2023-09-30T08:40:56;15.48;;;6.30;;
80985;SDS011;70451;51.226;6.412;2023-09-30T08:43:11;19.33;;;7.47;;
80985;SDS011;70451;51.226;6.412;2023-09-30T08:45:27;17.98;;;7.70;;
80985;SDS011;70451;51.226;6.412;2023-09-30T08:47:45;14.15;;;6.43;;
80985;SDS011;70451;51.226;6.412;2023-09-30T08:50:05;13.48;;;7.50;;
80985;SDS011;70451;51.226;6.412;2023-09-30T08:52:25;12.52;;;6.72;;
80985;SDS011;70451;51.226;6.412;2023-09-30T08:54:41;14.70;;;6.00;;
80985;SDS011;70451;51.226;6.412;2023-09-30T08:56:57;16.10;;;7.10;;
80985;SDS011;70451;51.226;6.412;2023-09-30T08:59:15;14.15;;;6.45;;
80985;SDS011;70451;51.226;6.412;2023-09-30T09:01:30;16.27;;;6.18;;
80985;SDS011;70451;51.226;6.412;2023-09-30T09:03:46;14.52;;;6.53;;
80985;SDS011;70451;51.226;6.412;2023-09-30T09:06:07;15.82;;;6.18;;
80985;SDS011;70451;51.226;6.412;2023-09-30T09:08:24;13.50;;;6.25;;
80985;SDS011;70451;51.226;6.412;2023-09-30T09:13:25;12.00;;;6.30;;
80985;SDS011;70451;51.226;6.412;2023-09-30T09:15:41;13.65;;;5.38;;
80985;SDS011;70451;51.226;6.412;2023-09-30T09:17:57;10.20;;;5.47;;
80985;SDS011;70451;51.226;6.412;2023-09-30T09:20:19;12.52;;;6.28;;
80985;SDS011;70451;51.226;6.412;2023-09-30T09:22:39;14.25;;;5.85;;
80985;SDS011;70451;51.226;6.412;2023-09-30T09:24:57;12.55;;;6.32;;
80985;SDS011;70451;51.226;6.412;2023-09-30T09:27:14;11.73;;;6.07;;
80985;SDS011;70451;51.226;6.412;2023-09-30T09:29:35;14.52;;;6.95;;
80985;SDS011;70451;51.226;6.412;2023-09-30T09:31:51;11.90;;;5.93;;
80985;SDS011;70451;51.226;6.412;2023-09-30T09:34:13;14.05;;;6.18;;
80985;SDS011;70451;51.226;6.412;2023-09-30T09:36:42;12.55;;;5.75;;
80985;SDS011;70451;51.226;6.412;2023-09-30T09:38:59;9.68;;;4.85;;
80985;SDS011;70451;51.226;6.412;2023-09-30T09:41:14;9.98;;;5.25;;
80985;SDS011;70451;51.226;6.412;2023-09-30T09:43:30;8.93;;;4.90;;
80985;SDS011;70451;51.226;6.412;2023-09-30T09:45:49;11.20;;;4.75;;
80985;SDS011;70451;51.226;6.412;2023-09-30T09:48:05;9.68;;;4.63;;
80985;SDS011;70451;51.226;6.412;2023-09-30T09:50:21;9.60;;;4.63;;
80985;SDS011;70451;51.226;6.412;2023-09-30T09:52:37;10.80;;;3.85;;
80985;SDS011;70451;51.226;6.412;2023-09-30T09:54:54;8.07;;;3.83;;
80985;SDS011;70451;51.226;6.412;2023-09-30T09:57:12;8.82;;;4.30;;
80985;SDS011;70451;51.226;6.412;2023-09-30T09:59:31;10.13;;;3.80;;
80985;SDS011;70451;51.226;6.412;2023-09-30T10:01:47;9.70;;;3.20;;
80985;SDS011;70451;51.226;6.412;2023-09-30T10:04:04;5.43;;;3.33;;
80985;SDS011;70451;51.226;6.412;2023-09-30T10:06:20;6.85;;;3.20;;
80985;SDS011;70451;51.226;6.412;2023-09-30T10:08:40;7.60;;;3.13;;
80985;SDS011;70451;51.226;6.412;2023-09-30T10:10:57;7.95;;;3.75;;
80985;SDS011;70451;51.226;6.412;2023-09-30T10:16:07;7.90;;;3.10;;
80985;SDS011;70451;51.226;6.412;2023-09-30T10:18:23;5.10;;;2.55;;
80985;SDS011;70451;51.226;6.412;2023-09-30T10:20:38;6.63;;;3.08;;
80985;SDS011;70451;51.226;6.412;2023-09-30T10:25:35;5.38;;;3.33;;
80985;SDS011;70451;51.226;6.412;2023-09-30T10:27:51;6.10;;;2.95;;
80985;SDS011;70451;51.226;6.412;2023-09-30T10:30:07;5.70;;;3.22;;
80985;SDS011;70451;51.226;6.412;2023-09-30T10:35:08;7.20;;;3.28;;
80985;SDS011;70451;51.226;6.412;2023-09-30T10:37:23;5.93;;;3.03;;
80985;SDS011;70451;51.226;6.412;2023-09-30T10:39:58;4.57;;;2.95;;
80985;SDS011;70451;51.226;6.412;2023-09-30T10:42:35;5.80;;;3.63;;
80985;SDS011;70451;51.226;6.412;2023-09-30T10:47:44;7.30;;;3.85;;
80985;SDS011;70451;51.226;6.412;2023-09-30T10:50:00;10.73;;;4.22;;
80985;SDS011;70451;51.226;6.412;2023-09-30T10:52:22;5.55;;;3.90;;
80985;SDS011;70451;51.226;6.412;2023-09-30T10:54:40;8.43;;;4.22;;
80985;SDS011;70451;51.226;6.412;2023-09-30T10:56:56;6.15;;;4.07;;
80985;SDS011;70451;51.226;6.412;2023-09-30T10:59:19;8.77;;;3.88;;
80985;SDS011;70451;51.226;6.412;2023-09-30T11:01:35;6.25;;;4.07;;
80985;SDS011;70451;51.226;6.412;2023-09-30T11:03:57;6.40;;;4.15;;
80985;SDS011;70451;51.226;6.412;2023-09-30T11:06:14;6.95;;;3.67;;
80985;SDS011;70451;51.226;6.412;2023-09-30T11:08:35;6.47;;;3.72;;
80985;SDS011;70451;51.226;6.412;2023-09-30T11:10:52;7.10;;;3.78;;
80985;SDS011;70451;51.226;6.412;2023-09-30T11:13:08;6.60;;;3.65;;
80985;SDS011;70451;51.226;6.412;2023-09-30T11:15:23;5.63;;;3.60;;
80985;SDS011;70451;51.226;6.412;2023-09-30T11:17:39;7.65;;;4.05;;
80985;SDS011;70451;51.226;6.412;2023-09-30T11:19:55;6.10;;;3.38;;
80985;SDS011;70451;51.226;6.412;2023-09-30T11:22:10;4.85;;;3.40;;
80985;SDS011;70451;51.226;6.412;2023-09-30T11:24:26;7.13;;;3.63;;
80985;SDS011;70451;51.226;6.412;2023-09-30T11:26:41;5.15;;;3.70;;
80985;SDS011;70451;51.226;6.412;2023-09-30T11:29:04;7.38;;;3.95;;
80985;SDS011;70451;51.226;6.412;2023-09-30T11:31:20;6.22;;;4.40;;
80985;SDS011;70451;51.226;6.412;2023-09-30T11:33:52;6.10;;;4.00;;
80985;SDS011;70451;51.226;6.412;2023-09-30T11:36:10;7.28;;;4.88;;
80985;SDS011;70451;51.226;6.412;2023-09-30T11:38:26;7.45;;;4.70;;
80985;SDS011;70451;51.226;6.412;2023-09-30T11:40:57;7.28;;;4.03;;
80985;SDS011;70451;51.226;6.412;2023-09-30T11:43:20;5.65;;;3.53;;
80985;SDS011;70451;51.226;6.412;2023-09-30T11:45:37;7.32;;;4.10;;
80985;SDS011;70451;51.226;6.412;2023-09-30T11:47:52;5.40;;;3.53;;
80985;SDS011;70451;51.226;6.412;2023-09-30T11:50:08;6.75;;;3.72;;
80985;SDS011;70451;51.226;6.412;2023-09-30T11:52:26;6.10;;;3.80;;
80985;SDS011;70451;51.226;6.412;2023-09-30T11:54:43;6.35;;;3.88;;
80985;SDS011;70451;51.226;6.412;2023-09-30T11:57:00;6.80;;;4.18;;
80985;SDS011;70451;51.226;6.412;2023-09-30T11:59:16;6.13;;;3.75;;
80985;SDS011;70451;51.226;6.412;2023-09-30T12:01:34;7.90;;;3.70;;
80985;SDS011;70451;51.226;6.412;2023-09-30T12:03:49;6.15;;;3.22;;
80985;SDS011;70451;51.226;6.412;2023-09-30T12:06:06;5.35;;;3.15;;
80985;SDS011;70451;51.226;6.412;2023-09-30T12:08:22;6.15;;;3.65;;
80985;SDS011;70451;51.226;6.412;2023-09-30T12:10:38;5.93;;;2.97;;
80985;SDS011;70451;51.226;6.412;2023-09-30T12:12:54;4.32;;;3.10;;
80985;SDS011;70451;51.226;6.412;2023-09-30T12:15:10;6.10;;;2.97;;
80985;SDS011;70451;51.226;6.412;2023-09-30T12:17:25;5.25;;;3.65;;
80985;SDS011;70451;51.226;6.412;2023-09-30T12:19:40;5.00;;;2.70;;
80985;SDS011;70451;51.226;6.412;2023-09-30T12:21:56;5.53;;;3.25;;
80985;SDS011;70451;51.226;6.412;2023-09-30T12:24:12;5.82;;;3.13;;
80985;SDS011;70451;51.226;6.412;2023-09-30T12:26:31;4.03;;;2.80;;
80985;SDS011;70451;51.226;6.412;2023-09-30T12:28:46;6.40;;;3.10;;
80985;SDS011;70451;51.226;6.412;2023-09-30T12:31:03;5.82;;;2.92;;
80985;SDS011;70451;51.226;6.412;2023-09-30T12:33:19;4.75;;;2.97;;
80985;SDS011;70451;51.226;6.412;2023-09-30T12:35:35;6.40;;;3.13;;
80985;SDS011;70451;51.226;6.412;2023-09-30T12:37:50;5.63;;;3.30;;
80985;SDS011;70451;51.226;6.412;2023-09-30T12:40:06;5.38;;;2.80;;
80985;SDS011;70451;51.226;6.412;2023-09-30T12:42:22;8.15;;;3.47;;
80985;SDS011;70451;51.226;6.412;2023-09-30T12:44:38;4.05;;;2.58;;
80985;SDS011;70451;51.226;6.412;2023-09-30T12:46:53;5.82;;;3.95;;
80985;SDS011;70451;51.226;6.412;2023-09-30T12:49:09;6.25;;;2.70;;
80985;SDS011;70451;51.226;6.412;2023-09-30T12:51:25;6.32;;;3.58;;
80985;SDS011;70451;51.226;6.412;2023-09-30T12:53:40;5.22;;;3.10;;
80985;SDS011;70451;51.226;6.412;2023-09-30T12:55:55;6.65;;;3.25;;
80985;SDS011;70451;51.226;6.412;2023-09-30T12:58:11;6.57;;;2.90;;
80985;SDS011;70451;51.226;6.412;2023-09-30T13:00:26;3.25;;;2.22;;
80985;SDS011;70451;51.226;6.412;2023-09-30T13:02:42;4.38;;;2.30;;
80985;SDS011;70451;51.226;6.412;2023-09-30T13:04:57;4.47;;;2.50;;
80985;SDS011;70451;51.226;6.412;2023-09-30T13:07:13;3.65;;;2.38;;
80985;SDS011;70451;51.226;6.412;2023-09-30T13:09:28;4.38;;;2.50;;
80985;SDS011;70451;51.226;6.412;2023-09-30T13:11:43;4.50;;;2.20;;
80985;SDS011;70451;51.226;6.412;2023-09-30T13:13:59;5.07;;;2.55;;
80985;SDS011;70451;51.226;6.412;2023-09-30T13:16:14;6.15;;;2.70;;
80985;SDS011;70451;51.226;6.412;2023-09-30T13:18:29;4.45;;;2.20;;
80985;SDS011;70451;51.226;6.412;2023-09-30T13:20:45;4.68;;;2.42;;
80985;SDS011;70451;51.226;6.412;2023-09-30T13:23:00;4.28;;;2.63;;
80985;SDS011;70451;51.226;6.412;2023-09-30T13:25:18;6.60;;;2.83;;
80985;SDS011;70451;51.226;6.412;2023-09-30T13:27:34;4.60;;;2.33;;
80985;SDS011;70451;51.226;6.412;2023-09-30T13:29:49;3.88;;;2.10;;
80985;SDS011;70451;51.226;6.412;2023-09-30T13:32:04;5.93;;;2.65;;
80985;SDS011;70451;51.226;6.412;2023-09-30T13:34:20;8.10;;;3.22;;
80985;SDS011;70451;51.226;6.412;2023-09-30T13:36:35;7.55;;;2.85;;
80985;SDS011;70451;51.226;6.412;2023-09-30T13:38:50;4.50;;;2.65;;
80985;SDS011;70451;51.226;6.412;2023-09-30T13:41:06;4.50;;;2.70;;
80985;SDS011;70451;51.226;6.412;2023-09-30T13:43:22;4.80;;;2.75;;
80985;SDS011;70451;51.226;6.412;2023-09-30T13:45:37;3.83;;;2.72;;
80985;SDS011;70451;51.226;6.412;2023-09-30T13:47:53;4.75;;;2.75;;
80985;SDS011;70451;51.226;6.412;2023-09-30T13:50:08;4.70;;;2.58;;
80985;SDS011;70451;51.226;6.412;2023-09-30T13:52:24;4.80;;;2.60;;
80985;SDS011;70451;51.226;6.412;2023-09-30T13:54:39;6.70;;;2.58;;